sensor_id;sensor_type;location;lat;lon;timestamp;P1;durP1;ratioP1;P2;durP2;ratioP2
20454;SDS011;10386;54.314;10.022;2023-05-08T00:01:28;7.07;;;3.47;;
20454;SDS011;10386;54.314;10.022;2023-05-08T00:03:55;4.37;;;3.73;;
20454;SDS011;10386;54.314;10.022;2023-05-08T00:06:25;4.50;;;3.80;;
20454;SDS011;10386;54.314;10.022;2023-05-08T00:08:55;5.53;;;3.80;;
20454;SDS011;10386;54.314;10.022;2023-05-08T00:11:22;5.07;;;3.70;;
20454;SDS011;10386;54.314;10.022;2023-05-08T00:13:48;6.17;;;4.33;;
20454;SDS011;10386;54.314;10.022;2023-05-08T00:16:15;6.17;;;3.53;;
20454;SDS011;10386;54.314;10.022;2023-05-08T00:18:42;4.80;;;3.70;;
20454;SDS011;10386;54.314;10.022;2023-05-08T00:21:09;3.57;;;3.10;;
20454;SDS011;10386;54.314;10.022;2023-05-08T00:23:35;7.13;;;3.87;;
20454;SDS011;10386;54.314;10.022;2023-05-08T00:26:02;4.37;;;3.23;;
20454;SDS011;10386;54.314;10.022;2023-05-08T00:28:29;4.67;;;3.60;;
20454;SDS011;10386;54.314;10.022;2023-05-08T00:30:58;4.90;;;3.57;;
20454;SDS011;10386;54.314;10.022;2023-05-08T00:33:26;5.80;;;3.67;;
20454;SDS011;10386;54.314;10.022;2023-05-08T00:35:59;5.93;;;3.53;;
20454;SDS011;10386;54.314;10.022;2023-05-08T00:38:36;6.40;;;3.83;;
20454;SDS011;10386;54.314;10.022;2023-05-08T00:41:02;4.07;;;3.67;;
20454;SDS011;10386;54.314;10.022;2023-05-08T00:43:29;6.27;;;3.60;;
20454;SDS011;10386;54.314;10.022;2023-05-08T00:45:57;5.23;;;3.70;;
20454;SDS011;10386;54.314;10.022;2023-05-08T00:48:29;5.33;;;4.00;;
20454;SDS011;10386;54.314;10.022;2023-05-08T00:50:59;5.07;;;4.00;;
20454;SDS011;10386;54.314;10.022;2023-05-08T00:53:30;9.37;;;4.03;;
20454;SDS011;10386;54.314;10.022;2023-05-08T00:55:59;5.73;;;4.03;;
20454;SDS011;10386;54.314;10.022;2023-05-08T00:58:26;6.27;;;3.30;;
20454;SDS011;10386;54.314;10.022;2023-05-08T01:00:54;6.17;;;3.60;;
20454;SDS011;10386;54.314;10.022;2023-05-08T01:03:22;4.23;;;3.50;;
20454;SDS011;10386;54.314;10.022;2023-05-08T01:05:49;5.03;;;4.00;;
20454;SDS011;10386;54.314;10.022;2023-05-08T01:08:16;5.40;;;3.60;;
20454;SDS011;10386;54.314;10.022;2023-05-08T01:13:24;4.90;;;3.70;;
20454;SDS011;10386;54.314;10.022;2023-05-08T01:16:15;3.73;;;3.30;;
20454;SDS011;10386;54.314;10.022;2023-05-08T01:18:46;4.33;;;3.50;;
20454;SDS011;10386;54.314;10.022;2023-05-08T01:21:27;5.83;;;3.80;;
20454;SDS011;10386;54.314;10.022;2023-05-08T01:24:11;4.50;;;3.53;;
20454;SDS011;10386;54.314;10.022;2023-05-08T01:32:07;5.70;;;3.20;;
20454;SDS011;10386;54.314;10.022;2023-05-08T01:34:37;5.73;;;3.80;;
20454;SDS011;10386;54.314;10.022;2023-05-08T01:37:14;6.37;;;4.37;;
20454;SDS011;10386;54.314;10.022;2023-05-08T01:39:50;6.07;;;3.50;;
20454;SDS011;10386;54.314;10.022;2023-05-08T01:45:00;6.10;;;3.47;;
20454;SDS011;10386;54.314;10.022;2023-05-08T01:47:34;5.17;;;3.20;;
20454;SDS011;10386;54.314;10.022;2023-05-08T01:50:04;4.07;;;3.50;;
20454;SDS011;10386;54.314;10.022;2023-05-08T01:52:57;5.70;;;3.43;;
20454;SDS011;10386;54.314;10.022;2023-05-08T01:55:29;4.03;;;3.20;;
20454;SDS011;10386;54.314;10.022;2023-05-08T01:57:58;4.73;;;3.30;;
20454;SDS011;10386;54.314;10.022;2023-05-08T02:00:29;4.80;;;3.17;;
20454;SDS011;10386;54.314;10.022;2023-05-08T02:02:56;5.23;;;3.40;;
20454;SDS011;10386;54.314;10.022;2023-05-08T02:05:24;6.13;;;3.67;;
20454;SDS011;10386;54.314;10.022;2023-05-08T02:07:53;3.60;;;3.30;;
20454;SDS011;10386;54.314;10.022;2023-05-08T02:10:20;7.17;;;3.43;;
20454;SDS011;10386;54.314;10.022;2023-05-08T02:12:50;3.53;;;3.20;;
20454;SDS011;10386;54.314;10.022;2023-05-08T02:15:20;5.00;;;3.13;;
20454;SDS011;10386;54.314;10.022;2023-05-08T02:17:48;3.93;;;3.50;;
20454;SDS011;10386;54.314;10.022;2023-05-08T02:20:16;3.83;;;3.33;;
20454;SDS011;10386;54.314;10.022;2023-05-08T02:22:47;7.40;;;3.63;;
20454;SDS011;10386;54.314;10.022;2023-05-08T02:25:15;4.50;;;3.53;;
20454;SDS011;10386;54.314;10.022;2023-05-08T02:27:45;4.27;;;3.70;;
20454;SDS011;10386;54.314;10.022;2023-05-08T02:30:14;3.90;;;3.17;;
20454;SDS011;10386;54.314;10.022;2023-05-08T02:32:43;6.30;;;3.43;;
20454;SDS011;10386;54.314;10.022;2023-05-08T02:35:11;3.93;;;3.20;;
20454;SDS011;10386;54.314;10.022;2023-05-08T02:37:44;4.10;;;3.63;;
20454;SDS011;10386;54.314;10.022;2023-05-08T02:40:13;6.57;;;3.50;;
20454;SDS011;10386;54.314;10.022;2023-05-08T02:42:40;5.47;;;3.37;;
20454;SDS011;10386;54.314;10.022;2023-05-08T02:45:07;3.73;;;3.07;;
20454;SDS011;10386;54.314;10.022;2023-05-08T02:50:30;3.60;;;3.30;;
20454;SDS011;10386;54.314;10.022;2023-05-08T02:53:11;8.03;;;3.33;;
20454;SDS011;10386;54.314;10.022;2023-05-08T02:55:51;4.90;;;3.20;;
20454;SDS011;10386;54.314;10.022;2023-05-08T02:58:38;7.40;;;3.30;;
20454;SDS011;10386;54.314;10.022;2023-05-08T03:03:56;3.97;;;3.53;;
20454;SDS011;10386;54.314;10.022;2023-05-08T03:06:28;6.30;;;3.67;;
20454;SDS011;10386;54.314;10.022;2023-05-08T03:09:00;3.60;;;3.30;;
20454;SDS011;10386;54.314;10.022;2023-05-08T03:11:32;4.80;;;3.60;;
20454;SDS011;10386;54.314;10.022;2023-05-08T03:14:08;6.37;;;4.03;;
20454;SDS011;10386;54.314;10.022;2023-05-08T03:16:37;10.73;;;3.63;;
20454;SDS011;10386;54.314;10.022;2023-05-08T03:19:07;6.33;;;3.40;;
20454;SDS011;10386;54.314;10.022;2023-05-08T03:21:40;5.13;;;3.80;;
20454;SDS011;10386;54.314;10.022;2023-05-08T03:24:09;5.50;;;3.40;;
20454;SDS011;10386;54.314;10.022;2023-05-08T03:26:37;5.67;;;3.40;;
20454;SDS011;10386;54.314;10.022;2023-05-08T03:29:04;6.50;;;3.77;;
20454;SDS011;10386;54.314;10.022;2023-05-08T03:31:39;3.80;;;3.50;;
20454;SDS011;10386;54.314;10.022;2023-05-08T03:34:07;5.20;;;3.60;;
20454;SDS011;10386;54.314;10.022;2023-05-08T03:36:37;6.60;;;3.40;;
20454;SDS011;10386;54.314;10.022;2023-05-08T03:39:04;4.53;;;3.53;;
20454;SDS011;10386;54.314;10.022;2023-05-08T03:41:31;3.80;;;3.30;;
20454;SDS011;10386;54.314;10.022;2023-05-08T03:43:58;5.27;;;4.13;;
20454;SDS011;10386;54.314;10.022;2023-05-08T03:46:27;6.87;;;3.70;;
20454;SDS011;10386;54.314;10.022;2023-05-08T03:48:56;6.00;;;4.47;;
20454;SDS011;10386;54.314;10.022;2023-05-08T03:51:25;5.57;;;3.67;;
20454;SDS011;10386;54.314;10.022;2023-05-08T03:53:53;3.80;;;3.47;;
20454;SDS011;10386;54.314;10.022;2023-05-08T03:56:20;6.70;;;4.00;;
20454;SDS011;10386;54.314;10.022;2023-05-08T04:01:37;4.80;;;4.23;;
20454;SDS011;10386;54.314;10.022;2023-05-08T04:04:11;4.43;;;3.77;;
20454;SDS011;10386;54.314;10.022;2023-05-08T04:10:13;4.57;;;4.03;;
20454;SDS011;10386;54.314;10.022;2023-05-08T04:15:25;5.47;;;3.90;;
20454;SDS011;10386;54.314;10.022;2023-05-08T04:20:41;4.17;;;3.77;;
20454;SDS011;10386;54.314;10.022;2023-05-08T04:23:13;5.77;;;4.10;;
20454;SDS011;10386;54.314;10.022;2023-05-08T04:25:42;3.83;;;3.40;;
20454;SDS011;10386;54.314;10.022;2023-05-08T04:28:11;7.40;;;3.93;;
20454;SDS011;10386;54.314;10.022;2023-05-08T04:30:38;5.60;;;3.77;;
20454;SDS011;10386;54.314;10.022;2023-05-08T04:33:05;5.87;;;3.80;;
20454;SDS011;10386;54.314;10.022;2023-05-08T04:35:33;5.93;;;3.73;;
20454;SDS011;10386;54.314;10.022;2023-05-08T04:38:00;4.50;;;3.67;;
20454;SDS011;10386;54.314;10.022;2023-05-08T04:40:28;4.57;;;3.33;;
20454;SDS011;10386;54.314;10.022;2023-05-08T04:42:54;4.30;;;3.77;;
20454;SDS011;10386;54.314;10.022;2023-05-08T04:45:21;4.13;;;3.70;;
20454;SDS011;10386;54.314;10.022;2023-05-08T04:47:48;5.93;;;3.47;;
20454;SDS011;10386;54.314;10.022;2023-05-08T04:50:15;4.60;;;3.97;;
20454;SDS011;10386;54.314;10.022;2023-05-08T04:52:41;4.43;;;3.57;;
20454;SDS011;10386;54.314;10.022;2023-05-08T04:55:08;3.70;;;3.40;;
20454;SDS011;10386;54.314;10.022;2023-05-08T04:57:36;3.57;;;3.10;;
20454;SDS011;10386;54.314;10.022;2023-05-08T05:00:02;3.53;;;3.13;;
20454;SDS011;10386;54.314;10.022;2023-05-08T05:02:31;5.43;;;3.87;;
20454;SDS011;10386;54.314;10.022;2023-05-08T05:04:58;11.13;;;3.50;;
20454;SDS011;10386;54.314;10.022;2023-05-08T05:07:26;3.53;;;3.23;;
20454;SDS011;10386;54.314;10.022;2023-05-08T05:09:53;5.37;;;3.37;;
20454;SDS011;10386;54.314;10.022;2023-05-08T05:12:20;4.00;;;3.33;;
20454;SDS011;10386;54.314;10.022;2023-05-08T05:14:46;7.87;;;3.80;;
20454;SDS011;10386;54.314;10.022;2023-05-08T05:17:13;3.57;;;3.27;;
20454;SDS011;10386;54.314;10.022;2023-05-08T05:19:40;6.10;;;3.67;;
20454;SDS011;10386;54.314;10.022;2023-05-08T05:22:06;5.07;;;3.50;;
20454;SDS011;10386;54.314;10.022;2023-05-08T05:24:33;4.40;;;4.00;;
20454;SDS011;10386;54.314;10.022;2023-05-08T05:27:04;3.97;;;3.30;;
20454;SDS011;10386;54.314;10.022;2023-05-08T05:29:31;5.27;;;3.50;;
20454;SDS011;10386;54.314;10.022;2023-05-08T05:31:58;5.03;;;3.47;;
20454;SDS011;10386;54.314;10.022;2023-05-08T05:34:25;3.93;;;3.60;;
20454;SDS011;10386;54.314;10.022;2023-05-08T05:36:51;5.17;;;3.60;;
20454;SDS011;10386;54.314;10.022;2023-05-08T05:39:18;4.77;;;4.00;;
20454;SDS011;10386;54.314;10.022;2023-05-08T05:41:45;5.63;;;3.97;;
20454;SDS011;10386;54.314;10.022;2023-05-08T05:44:11;4.70;;;3.80;;
20454;SDS011;10386;54.314;10.022;2023-05-08T05:46:38;6.13;;;4.30;;
20454;SDS011;10386;54.314;10.022;2023-05-08T05:49:08;9.87;;;4.10;;
20454;SDS011;10386;54.314;10.022;2023-05-08T05:51:37;4.67;;;4.23;;
20454;SDS011;10386;54.314;10.022;2023-05-08T05:54:03;8.50;;;4.50;;
20454;SDS011;10386;54.314;10.022;2023-05-08T05:56:30;6.17;;;4.00;;
20454;SDS011;10386;54.314;10.022;2023-05-08T05:58:57;5.33;;;4.50;;
20454;SDS011;10386;54.314;10.022;2023-05-08T06:01:23;8.87;;;4.30;;
20454;SDS011;10386;54.314;10.022;2023-05-08T06:03:50;7.30;;;5.00;;
20454;SDS011;10386;54.314;10.022;2023-05-08T06:06:17;6.30;;;4.67;;
20454;SDS011;10386;54.314;10.022;2023-05-08T06:08:44;7.67;;;5.47;;
20454;SDS011;10386;54.314;10.022;2023-05-08T06:11:11;7.03;;;4.60;;
20454;SDS011;10386;54.314;10.022;2023-05-08T06:13:38;6.73;;;4.83;;
20454;SDS011;10386;54.314;10.022;2023-05-08T06:16:06;8.27;;;4.83;;
20454;SDS011;10386;54.314;10.022;2023-05-08T06:18:33;6.57;;;4.90;;
20454;SDS011;10386;54.314;10.022;2023-05-08T06:21:00;7.73;;;5.20;;
20454;SDS011;10386;54.314;10.022;2023-05-08T06:23:32;6.97;;;5.50;;
20454;SDS011;10386;54.314;10.022;2023-05-08T06:25:58;5.97;;;4.60;;
20454;SDS011;10386;54.314;10.022;2023-05-08T06:28:25;5.77;;;4.43;;
20454;SDS011;10386;54.314;10.022;2023-05-08T06:30:52;5.53;;;4.43;;
20454;SDS011;10386;54.314;10.022;2023-05-08T06:33:20;8.53;;;5.27;;
20454;SDS011;10386;54.314;10.022;2023-05-08T06:35:47;6.27;;;4.20;;
20454;SDS011;10386;54.314;10.022;2023-05-08T06:38:14;5.37;;;3.93;;
20454;SDS011;10386;54.314;10.022;2023-05-08T06:40:42;4.93;;;4.43;;
20454;SDS011;10386;54.314;10.022;2023-05-08T06:43:09;5.20;;;4.43;;
20454;SDS011;10386;54.314;10.022;2023-05-08T06:45:37;4.87;;;3.83;;
20454;SDS011;10386;54.314;10.022;2023-05-08T06:48:04;6.47;;;4.27;;
20454;SDS011;10386;54.314;10.022;2023-05-08T06:50:32;5.60;;;3.87;;
20454;SDS011;10386;54.314;10.022;2023-05-08T06:52:58;9.83;;;5.23;;
20454;SDS011;10386;54.314;10.022;2023-05-08T06:55:28;4.40;;;3.97;;
20454;SDS011;10386;54.314;10.022;2023-05-08T06:57:54;5.57;;;3.93;;
20454;SDS011;10386;54.314;10.022;2023-05-08T07:00:21;5.10;;;4.20;;
20454;SDS011;10386;54.314;10.022;2023-05-08T07:02:48;4.90;;;4.40;;
20454;SDS011;10386;54.314;10.022;2023-05-08T07:05:15;4.87;;;4.07;;
20454;SDS011;10386;54.314;10.022;2023-05-08T07:07:43;6.83;;;4.17;;
20454;SDS011;10386;54.314;10.022;2023-05-08T07:10:13;6.93;;;4.50;;
20454;SDS011;10386;54.314;10.022;2023-05-08T07:12:40;7.23;;;4.33;;
20454;SDS011;10386;54.314;10.022;2023-05-08T07:15:07;6.33;;;4.60;;
20454;SDS011;10386;54.314;10.022;2023-05-08T07:17:50;6.00;;;4.70;;
20454;SDS011;10386;54.314;10.022;2023-05-08T07:20:17;5.40;;;4.87;;
20454;SDS011;10386;54.314;10.022;2023-05-08T07:22:43;5.83;;;4.80;;
20454;SDS011;10386;54.314;10.022;2023-05-08T07:25:10;8.70;;;4.63;;
20454;SDS011;10386;54.314;10.022;2023-05-08T07:27:40;8.67;;;4.87;;
20454;SDS011;10386;54.314;10.022;2023-05-08T07:30:07;7.23;;;5.07;;
20454;SDS011;10386;54.314;10.022;2023-05-08T07:32:34;7.73;;;4.90;;
20454;SDS011;10386;54.314;10.022;2023-05-08T07:35:01;6.20;;;4.53;;
20454;SDS011;10386;54.314;10.022;2023-05-08T07:37:29;8.50;;;5.03;;
20454;SDS011;10386;54.314;10.022;2023-05-08T07:39:55;6.90;;;5.33;;
20454;SDS011;10386;54.314;10.022;2023-05-08T07:42:22;5.00;;;4.47;;
20454;SDS011;10386;54.314;10.022;2023-05-08T07:44:49;6.57;;;4.53;;
20454;SDS011;10386;54.314;10.022;2023-05-08T07:47:20;6.77;;;4.83;;
20454;SDS011;10386;54.314;10.022;2023-05-08T07:49:47;5.47;;;4.60;;
20454;SDS011;10386;54.314;10.022;2023-05-08T07:52:14;5.80;;;4.60;;
20454;SDS011;10386;54.314;10.022;2023-05-08T07:54:41;5.67;;;4.80;;
20454;SDS011;10386;54.314;10.022;2023-05-08T07:57:09;6.23;;;4.80;;
20454;SDS011;10386;54.314;10.022;2023-05-08T07:59:36;6.73;;;4.83;;
20454;SDS011;10386;54.314;10.022;2023-05-08T08:02:03;4.83;;;4.33;;
20454;SDS011;10386;54.314;10.022;2023-05-08T08:04:29;6.00;;;4.93;;
20454;SDS011;10386;54.314;10.022;2023-05-08T08:06:56;4.87;;;4.43;;
20454;SDS011;10386;54.314;10.022;2023-05-08T08:09:23;5.27;;;4.20;;
20454;SDS011;10386;54.314;10.022;2023-05-08T08:11:51;7.10;;;4.30;;
20454;SDS011;10386;54.314;10.022;2023-05-08T08:14:17;4.67;;;4.17;;
20454;SDS011;10386;54.314;10.022;2023-05-08T08:16:44;8.47;;;5.07;;
20454;SDS011;10386;54.314;10.022;2023-05-08T08:19:11;6.60;;;4.33;;
20454;SDS011;10386;54.314;10.022;2023-05-08T08:21:44;6.73;;;4.27;;
20454;SDS011;10386;54.314;10.022;2023-05-08T08:24:11;6.17;;;4.70;;
20454;SDS011;10386;54.314;10.022;2023-05-08T08:26:38;4.70;;;4.20;;
20454;SDS011;10386;54.314;10.022;2023-05-08T08:29:05;4.70;;;3.47;;
20454;SDS011;10386;54.314;10.022;2023-05-08T08:31:32;4.90;;;3.97;;
20454;SDS011;10386;54.314;10.022;2023-05-08T08:33:59;4.33;;;3.60;;
20454;SDS011;10386;54.314;10.022;2023-05-08T08:36:26;4.47;;;3.63;;
20454;SDS011;10386;54.314;10.022;2023-05-08T08:38:53;5.23;;;3.30;;
20454;SDS011;10386;54.314;10.022;2023-05-08T08:41:20;5.47;;;4.10;;
20454;SDS011;10386;54.314;10.022;2023-05-08T08:43:47;4.33;;;3.77;;
20454;SDS011;10386;54.314;10.022;2023-05-08T08:46:13;4.27;;;3.87;;
20454;SDS011;10386;54.314;10.022;2023-05-08T08:48:44;4.10;;;3.70;;
20454;SDS011;10386;54.314;10.022;2023-05-08T08:51:30;4.07;;;3.57;;
20454;SDS011;10386;54.314;10.022;2023-05-08T08:54:11;5.83;;;3.60;;
20454;SDS011;10386;54.314;10.022;2023-05-08T08:56:40;5.43;;;3.13;;
20454;SDS011;10386;54.314;10.022;2023-05-08T08:59:08;4.20;;;3.20;;
20454;SDS011;10386;54.314;10.022;2023-05-08T09:01:39;5.23;;;3.00;;
20454;SDS011;10386;54.314;10.022;2023-05-08T09:04:07;3.10;;;2.80;;
20454;SDS011;10386;54.314;10.022;2023-05-08T09:06:34;5.80;;;3.10;;
20454;SDS011;10386;54.314;10.022;2023-05-08T09:09:02;3.50;;;3.20;;
20454;SDS011;10386;54.314;10.022;2023-05-08T09:11:30;6.00;;;3.17;;
20454;SDS011;10386;54.314;10.022;2023-05-08T09:13:57;3.43;;;3.13;;
20454;SDS011;10386;54.314;10.022;2023-05-08T09:16:24;6.20;;;3.50;;
20454;SDS011;10386;54.314;10.022;2023-05-08T09:18:53;3.47;;;2.93;;
20454;SDS011;10386;54.314;10.022;2023-05-08T09:21:20;6.43;;;3.30;;
20454;SDS011;10386;54.314;10.022;2023-05-08T09:24:00;5.30;;;3.07;;
20454;SDS011;10386;54.314;10.022;2023-05-08T09:26:35;3.27;;;2.97;;
20454;SDS011;10386;54.314;10.022;2023-05-08T09:31:34;3.90;;;3.03;;
20454;SDS011;10386;54.314;10.022;2023-05-08T09:34:01;3.00;;;2.77;;
20454;SDS011;10386;54.314;10.022;2023-05-08T09:36:29;5.57;;;2.83;;
20454;SDS011;10386;54.314;10.022;2023-05-08T09:38:57;2.87;;;2.67;;
20454;SDS011;10386;54.314;10.022;2023-05-08T09:41:24;2.80;;;2.60;;
20454;SDS011;10386;54.314;10.022;2023-05-08T09:44:04;3.17;;;2.57;;
20454;SDS011;10386;54.314;10.022;2023-05-08T09:46:32;4.80;;;2.67;;
20454;SDS011;10386;54.314;10.022;2023-05-08T09:49:01;2.70;;;2.50;;
20454;SDS011;10386;54.314;10.022;2023-05-08T09:51:30;3.53;;;2.73;;
20454;SDS011;10386;54.314;10.022;2023-05-08T09:53:57;3.60;;;2.60;;
20454;SDS011;10386;54.314;10.022;2023-05-08T09:56:43;3.10;;;2.73;;
20454;SDS011;10386;54.314;10.022;2023-05-08T10:01:49;4.37;;;2.20;;
20454;SDS011;10386;54.314;10.022;2023-05-08T10:04:16;3.63;;;2.40;;
20454;SDS011;10386;54.314;10.022;2023-05-08T10:06:43;2.90;;;2.60;;
20454;SDS011;10386;54.314;10.022;2023-05-08T10:09:25;5.23;;;2.90;;
20454;SDS011;10386;54.314;10.022;2023-05-08T10:12:04;2.93;;;2.30;;
20454;SDS011;10386;54.314;10.022;2023-05-08T10:14:32;3.40;;;2.93;;
20454;SDS011;10386;54.314;10.022;2023-05-08T10:16:58;3.63;;;2.40;;
20454;SDS011;10386;54.314;10.022;2023-05-08T10:19:31;2.63;;;2.43;;
20454;SDS011;10386;54.314;10.022;2023-05-08T10:21:58;3.03;;;2.27;;
20454;SDS011;10386;54.314;10.022;2023-05-08T10:24:31;2.70;;;2.50;;
20454;SDS011;10386;54.314;10.022;2023-05-08T10:27:00;3.93;;;2.03;;
20454;SDS011;10386;54.314;10.022;2023-05-08T10:29:39;2.97;;;2.53;;
20454;SDS011;10386;54.314;10.022;2023-05-08T10:32:12;3.20;;;2.50;;
20454;SDS011;10386;54.314;10.022;2023-05-08T10:34:44;3.00;;;2.30;;
20454;SDS011;10386;54.314;10.022;2023-05-08T10:37:14;2.70;;;2.50;;
20454;SDS011;10386;54.314;10.022;2023-05-08T10:39:43;3.50;;;2.30;;
20454;SDS011;10386;54.314;10.022;2023-05-08T10:42:11;2.60;;;2.17;;
20454;SDS011;10386;54.314;10.022;2023-05-08T10:44:39;4.13;;;2.50;;
20454;SDS011;10386;54.314;10.022;2023-05-08T10:47:18;4.97;;;2.80;;
20454;SDS011;10386;54.314;10.022;2023-05-08T10:49:59;2.80;;;2.13;;
20454;SDS011;10386;54.314;10.022;2023-05-08T11:03:38;2.13;;;1.93;;
20454;SDS011;10386;54.314;10.022;2023-05-08T11:06:07;2.10;;;1.90;;
20454;SDS011;10386;54.314;10.022;2023-05-08T11:08:42;4.50;;;2.20;;
20454;SDS011;10386;54.314;10.022;2023-05-08T11:11:22;5.43;;;2.40;;
20454;SDS011;10386;54.314;10.022;2023-05-08T11:19:22;3.57;;;2.00;;
20454;SDS011;10386;54.314;10.022;2023-05-08T11:24:36;2.60;;;1.80;;
20454;SDS011;10386;54.314;10.022;2023-05-08T11:27:04;3.13;;;1.90;;
20454;SDS011;10386;54.314;10.022;2023-05-08T11:29:31;4.60;;;2.20;;
20454;SDS011;10386;54.314;10.022;2023-05-08T11:31:58;2.83;;;2.10;;
20454;SDS011;10386;54.314;10.022;2023-05-08T11:39:47;2.40;;;2.20;;
20454;SDS011;10386;54.314;10.022;2023-05-08T11:45:00;3.77;;;2.07;;
20454;SDS011;10386;54.314;10.022;2023-05-08T11:47:31;3.10;;;2.13;;
20454;SDS011;10386;54.314;10.022;2023-05-08T11:50:11;2.40;;;2.20;;
20454;SDS011;10386;54.314;10.022;2023-05-08T11:52:40;3.97;;;2.10;;
20454;SDS011;10386;54.314;10.022;2023-05-08T11:55:12;1.70;;;1.60;;
20454;SDS011;10386;54.314;10.022;2023-05-08T11:57:41;3.27;;;1.80;;
20454;SDS011;10386;54.314;10.022;2023-05-08T12:00:08;2.03;;;1.80;;
20454;SDS011;10386;54.314;10.022;2023-05-08T12:02:40;3.97;;;1.90;;
20454;SDS011;10386;54.314;10.022;2023-05-08T12:05:09;2.00;;;1.80;;
20454;SDS011;10386;54.314;10.022;2023-05-08T12:07:43;2.15;;;1.75;;
20454;SDS011;10386;54.314;10.022;2023-05-08T12:10:12;1.70;;;1.60;;
20454;SDS011;10386;54.314;10.022;2023-05-08T12:12:43;2.45;;;1.75;;
20454;SDS011;10386;54.314;10.022;2023-05-08T12:15:11;2.83;;;1.60;;
20454;SDS011;10386;54.314;10.022;2023-05-08T12:17:39;4.20;;;1.90;;
20454;SDS011;10386;54.314;10.022;2023-05-08T12:20:14;3.95;;;2.00;;
20454;SDS011;10386;54.314;10.022;2023-05-08T12:22:49;2.90;;;1.70;;
20454;SDS011;10386;54.314;10.022;2023-05-08T12:25:18;2.05;;;1.95;;
20454;SDS011;10386;54.314;10.022;2023-05-08T12:27:45;1.85;;;1.70;;
20454;SDS011;10386;54.314;10.022;2023-05-08T12:30:13;2.22;;;1.80;;
20454;SDS011;10386;54.314;10.022;2023-05-08T12:32:42;3.00;;;1.73;;
20454;SDS011;10386;54.314;10.022;2023-05-08T12:35:10;1.73;;;1.63;;
20454;SDS011;10386;54.314;10.022;2023-05-08T12:37:37;3.03;;;1.95;;
20454;SDS011;10386;54.314;10.022;2023-05-08T12:40:05;1.85;;;1.60;;
20454;SDS011;10386;54.314;10.022;2023-05-08T12:45:26;3.08;;;1.95;;
20454;SDS011;10386;54.314;10.022;2023-05-08T12:47:58;5.95;;;1.88;;
20454;SDS011;10386;54.314;10.022;2023-05-08T12:50:26;5.10;;;1.80;;
20454;SDS011;10386;54.314;10.022;2023-05-08T12:53:00;3.50;;;1.60;;
20454;SDS011;10386;54.314;10.022;2023-05-08T12:55:29;2.05;;;1.73;;
20454;SDS011;10386;54.314;10.022;2023-05-08T12:57:58;4.22;;;1.70;;
20454;SDS011;10386;54.314;10.022;2023-05-08T13:00:44;1.95;;;1.63;;
20454;SDS011;10386;54.314;10.022;2023-05-08T13:03:13;3.35;;;2.00;;
20454;SDS011;10386;54.314;10.022;2023-05-08T13:05:54;2.67;;;1.90;;
20454;SDS011;10386;54.314;10.022;2023-05-08T13:08:32;4.43;;;1.98;;
20454;SDS011;10386;54.314;10.022;2023-05-08T13:11:00;4.10;;;2.08;;
20454;SDS011;10386;54.314;10.022;2023-05-08T13:13:31;1.85;;;1.75;;
20454;SDS011;10386;54.314;10.022;2023-05-08T13:16:03;2.75;;;1.92;;
20454;SDS011;10386;54.314;10.022;2023-05-08T13:18:32;2.13;;;1.73;;
20454;SDS011;10386;54.314;10.022;2023-05-08T13:21:01;5.53;;;1.90;;
20454;SDS011;10386;54.314;10.022;2023-05-08T13:23:29;3.75;;;2.00;;
20454;SDS011;10386;54.314;10.022;2023-05-08T13:25:55;9.60;;;2.22;;
20454;SDS011;10386;54.314;10.022;2023-05-08T13:28:22;4.43;;;2.00;;
20454;SDS011;10386;54.314;10.022;2023-05-08T13:30:49;3.97;;;1.85;;
20454;SDS011;10386;54.314;10.022;2023-05-08T13:33:16;2.85;;;2.03;;
20454;SDS011;10386;54.314;10.022;2023-05-08T13:35:42;2.30;;;2.10;;
20454;SDS011;10386;54.314;10.022;2023-05-08T13:38:09;2.60;;;1.63;;
20454;SDS011;10386;54.314;10.022;2023-05-08T13:40:36;4.72;;;2.03;;
20454;SDS011;10386;54.314;10.022;2023-05-08T13:43:03;3.58;;;2.20;;
20454;SDS011;10386;54.314;10.022;2023-05-08T13:45:29;2.67;;;2.25;;
20454;SDS011;10386;54.314;10.022;2023-05-08T13:47:58;4.00;;;1.65;;
20454;SDS011;10386;54.314;10.022;2023-05-08T13:50:25;5.55;;;1.80;;
20454;SDS011;10386;54.314;10.022;2023-05-08T13:52:52;1.98;;;1.60;;
20454;SDS011;10386;54.314;10.022;2023-05-08T13:55:20;2.10;;;1.65;;
20454;SDS011;10386;54.314;10.022;2023-05-08T13:57:49;6.05;;;1.80;;
20454;SDS011;10386;54.314;10.022;2023-05-08T14:00:16;2.53;;;1.40;;
20454;SDS011;10386;54.314;10.022;2023-05-08T14:02:43;2.92;;;1.65;;
20454;SDS011;10386;54.314;10.022;2023-05-08T14:05:10;2.53;;;1.65;;
20454;SDS011;10386;54.314;10.022;2023-05-08T14:07:37;4.13;;;1.55;;
20454;SDS011;10386;54.314;10.022;2023-05-08T14:10:07;3.50;;;1.33;;
20454;SDS011;10386;54.314;10.022;2023-05-08T14:12:34;1.67;;;1.52;;
20454;SDS011;10386;54.314;10.022;2023-05-08T14:15:04;3.00;;;1.63;;
20454;SDS011;10386;54.314;10.022;2023-05-08T14:17:34;1.63;;;1.50;;
20454;SDS011;10386;54.314;10.022;2023-05-08T14:20:01;8.85;;;1.70;;
20454;SDS011;10386;54.314;10.022;2023-05-08T14:22:29;2.25;;;1.42;;
20454;SDS011;10386;54.314;10.022;2023-05-08T14:24:56;3.53;;;1.70;;
20454;SDS011;10386;54.314;10.022;2023-05-08T14:27:22;2.85;;;1.50;;
20454;SDS011;10386;54.314;10.022;2023-05-08T14:29:49;2.92;;;1.35;;
20454;SDS011;10386;54.314;10.022;2023-05-08T14:32:16;6.28;;;1.40;;
20454;SDS011;10386;54.314;10.022;2023-05-08T14:34:42;4.03;;;1.65;;
20454;SDS011;10386;54.314;10.022;2023-05-08T14:37:09;4.07;;;1.67;;
20454;SDS011;10386;54.314;10.022;2023-05-08T14:39:38;2.58;;;1.67;;
20454;SDS011;10386;54.314;10.022;2023-05-08T14:42:04;1.70;;;1.52;;
20454;SDS011;10386;54.314;10.022;2023-05-08T14:44:48;2.72;;;1.42;;
20454;SDS011;10386;54.314;10.022;2023-05-08T14:47:18;4.85;;;1.80;;
20454;SDS011;10386;54.314;10.022;2023-05-08T14:49:45;1.55;;;1.45;;
20454;SDS011;10386;54.314;10.022;2023-05-08T14:52:11;4.15;;;1.60;;
20454;SDS011;10386;54.314;10.022;2023-05-08T14:54:38;3.78;;;1.55;;
20454;SDS011;10386;54.314;10.022;2023-05-08T14:57:05;2.50;;;1.70;;
20454;SDS011;10386;54.314;10.022;2023-05-08T14:59:32;2.38;;;1.45;;
20454;SDS011;10386;54.314;10.022;2023-05-08T15:01:59;6.68;;;1.63;;
20454;SDS011;10386;54.314;10.022;2023-05-08T15:04:26;2.55;;;2.15;;
20454;SDS011;10386;54.314;10.022;2023-05-08T15:06:53;3.00;;;1.52;;
20454;SDS011;10386;54.314;10.022;2023-05-08T15:09:19;1.63;;;1.50;;
20454;SDS011;10386;54.314;10.022;2023-05-08T15:11:46;2.55;;;1.40;;
20454;SDS011;10386;54.314;10.022;2023-05-08T15:14:13;3.70;;;1.60;;
20454;SDS011;10386;54.314;10.022;2023-05-08T15:16:39;2.20;;;1.70;;
20454;SDS011;10386;54.314;10.022;2023-05-08T15:19:06;3.60;;;1.63;;
20454;SDS011;10386;54.314;10.022;2023-05-08T15:21:34;7.65;;;1.98;;
20454;SDS011;10386;54.314;10.022;2023-05-08T15:24:01;9.63;;;1.90;;
20454;SDS011;10386;54.314;10.022;2023-05-08T15:26:28;4.13;;;1.75;;
20454;SDS011;10386;54.314;10.022;2023-05-08T15:28:55;2.05;;;1.63;;
20454;SDS011;10386;54.314;10.022;2023-05-08T15:31:21;7.28;;;1.73;;
20454;SDS011;10386;54.314;10.022;2023-05-08T15:33:48;4.55;;;1.70;;
20454;SDS011;10386;54.314;10.022;2023-05-08T15:36:15;4.65;;;1.70;;
20454;SDS011;10386;54.314;10.022;2023-05-08T15:38:42;2.80;;;1.80;;
20454;SDS011;10386;54.314;10.022;2023-05-08T15:41:09;4.70;;;1.63;;
20454;SDS011;10386;54.314;10.022;2023-05-08T15:43:40;2.53;;;1.73;;
20454;SDS011;10386;54.314;10.022;2023-05-08T15:46:07;3.85;;;1.40;;
20454;SDS011;10386;54.314;10.022;2023-05-08T15:48:34;3.20;;;1.35;;